Time;durP1;ratioP1;P1;durP2;ratioP2;P2;SDS_P1;SDS_P2;PMS_P1;PMS_P2;Temp;Humidity;BMP_temperature;BMP_pressure;BME280_temperature;BME280_humidity;BME280_pressure;Samples;Min_cycle;Max_cycle;Signal;HPM_P1;HPM_P2
2022/06/06 00:02:23;;;;;;;3.83;3.53;;;;;;;;;;4973104;28;20204;-51
2022/06/06 00:04:49;;;;;;;4.23;3.83;;;;;;;;;;4972630;28;20227;-51
2022/06/06 00:07:15;;;;;;;4.03;3.77;;;;;;;;;;4972832;28;20227;-50
2022/06/06 00:09:41;;;;;;;4.13;3.83;;;;;;;;;;4970999;28;20309;-50
2022/06/06 00:12:08;;;;;;;4.95;4.55;;;;;;;;;;4971182;28;20423;-52
2022/06/06 00:14:35;;;;;;;4.30;4.00;;;;;;;;;;4972683;28;20561;-52
2022/06/06 00:17:01;;;;;;;4.30;4.00;;;;;;;;;;4972702;28;20686;-53
2022/06/06 00:19:27;;;;;;;4.17;3.33;;;;;;;;;;4972532;28;20552;-52
2022/06/06 00:21:53;;;;;;;4.03;3.73;;;;;;;;;;4973012;28;20203;-52
2022/06/06 00:24:20;;;;;;;3.97;3.67;;;;;;;;;;4972502;28;20223;-52
2022/06/06 00:26:46;;;;;;;5.13;4.33;;;;;;;;;;4972623;28;20235;-52
2022/06/06 00:29:15;;;;;;;4.60;4.30;;;;;;;;;;4972496;28;20239;-52
2022/06/06 00:37:13;;;;;;;6.33;5.17;;;;;;;;;;4972724;28;20198;-53
2022/06/06 00:39:39;;;;;;;6.20;5.73;;;;;;;;;;4971849;28;20574;-53
2022/06/06 00:42:12;;;;;;;6.37;5.87;;;;;;;;;;4972283;28;20206;-52
2022/06/06 00:44:38;;;;;;;6.27;5.77;;;;;;;;;;4972357;28;20657;-53
2022/06/06 00:47:09;;;;;;;7.20;6.60;;;;;;;;;;4972365;28;20206;-53
2022/06/06 00:49:36;;;;;;;7.10;6.50;;;;;;;;;;4972067;28;20191;-52
2022/06/06 00:52:04;;;;;;;7.53;6.93;;;;;;;;;;4972064;28;20214;-52
2022/06/06 00:54:31;;;;;;;8.30;7.60;;;;;;;;;;4972250;28;20191;-52
2022/06/06 00:57:02;;;;;;;8.30;7.70;;;;;;;;;;4972313;28;20211;-52
2022/06/06 00:59:29;;;;;;;8.30;7.70;;;;;;;;;;4972302;28;20252;-53
2022/06/06 01:01:56;;;;;;;9.67;8.83;;;;;;;;;;4972336;28;20203;-53
2022/06/06 01:04:25;;;;;;;9.17;8.47;;;;;;;;;;4972189;28;20763;-53
2022/06/06 01:06:52;;;;;;;9.10;8.40;;;;;;;;;;4972403;28;20210;-53
2022/06/06 01:09:19;;;;;;;10.17;9.27;;;;;;;;;;4974756;28;20198;-53
2022/06/06 01:11:47;;;;;;;9.63;8.83;;;;;;;;;;4976112;28;20211;-52
2022/06/06 01:14:17;;;;;;;10.27;9.37;;;;;;;;;;4975753;28;20206;-53
2022/06/06 01:16:47;;;;;;;9.67;8.80;;;;;;;;;;4975762;28;20205;-53
2022/06/06 01:19:22;;;;;;;9.83;9.03;;;;;;;;;;4975927;28;20425;-52
2022/06/06 01:22:00;;;;;;;9.80;9.00;;;;;;;;;;4976028;28;20199;-53
2022/06/06 01:24:47;;;;;;;9.67;8.83;;;;;;;;;;4975794;28;20285;-53
2022/06/06 01:27:22;;;;;;;8.97;8.27;;;;;;;;;;4943203;28;20229;-53
2022/06/06 01:29:51;;;;;;;8.40;7.70;;;;;;;;;;4975330;28;20250;-53
2022/06/06 01:32:19;;;;;;;8.97;8.27;;;;;;;;;;4975579;28;20207;-52
2022/06/06 01:34:48;;;;;;;9.63;8.73;;;;;;;;;;4975653;28;20199;-54
2022/06/06 01:37:26;;;;;;;8.50;7.80;;;;;;;;;;4975756;28;20202;-53
2022/06/06 01:39:53;;;;;;;9.00;8.27;;;;;;;;;;4975374;28;20210;-53
2022/06/06 01:42:21;;;;;;;9.27;8.47;;;;;;;;;;4975554;28;20195;-53
2022/06/06 01:44:51;;;;;;;9.13;7.90;;;;;;;;;;4975245;28;20298;-52
2022/06/06 01:47:20;;;;;;;10.33;9.33;;;;;;;;;;4975318;28;20591;-53
2022/06/06 01:49:46;;;;;;;9.87;8.73;;;;;;;;;;4975403;28;20317;-53
2022/06/06 01:52:13;;;;;;;11.60;10.43;;;;;;;;;;4975310;28;20217;-53
2022/06/06 01:54:39;;;;;;;11.60;10.60;;;;;;;;;;4975141;28;20195;-53
2022/06/06 01:57:07;;;;;;;11.23;10.20;;;;;;;;;;4975334;28;20615;-52
2022/06/06 01:59:33;;;;;;;11.90;10.80;;;;;;;;;;4975008;28;20606;-52
2022/06/06 02:01:59;;;;;;;11.67;10.67;;;;;;;;;;4975247;28;20209;-52
2022/06/06 02:04:27;;;;;;;11.50;10.40;;;;;;;;;;4975144;28;20265;-52
2022/06/06 02:06:53;;;;;;;12.40;11.23;;;;;;;;;;4974820;28;20238;-52
2022/06/06 02:09:19;;;;;;;12.03;10.93;;;;;;;;;;4975273;28;20242;-52
2022/06/06 02:11:45;;;;;;;11.63;10.53;;;;;;;;;;4974901;28;20190;-52
2022/06/06 02:14:11;;;;;;;12.03;10.93;;;;;;;;;;4974998;28;20199;-53
2022/06/06 02:16:38;;;;;;;13.07;11.77;;;;;;;;;;4974954;28;20223;-52
2022/06/06 02:19:05;;;;;;;11.80;10.70;;;;;;;;;;4974568;28;20207;-53
2022/06/06 02:21:32;;;;;;;12.43;11.23;;;;;;;;;;4974251;28;20210;-53
2022/06/06 02:23:58;;;;;;;12.90;11.70;;;;;;;;;;4974790;28;20579;-52
2022/06/06 02:26:24;;;;;;;13.27;11.87;;;;;;;;;;4974607;28;20583;-53
2022/06/06 02:28:51;;;;;;;12.47;11.27;;;;;;;;;;4974585;28;20238;-52
2022/06/06 02:31:17;;;;;;;14.33;12.93;;;;;;;;;;4974423;28;20339;-53
2022/06/06 02:33:42;;;;;;;14.60;12.90;;;;;;;;;;4974440;28;20686;-52
2022/06/06 02:36:08;;;;;;;13.90;12.50;;;;;;;;;;4974639;28;20195;-52
2022/06/06 02:38:36;;;;;;;15.03;13.27;;;;;;;;;;4974276;28;20301;-53
2022/06/06 02:41:08;;;;;;;14.20;12.67;;;;;;;;;;4974597;28;20207;-53
2022/06/06 02:43:34;;;;;;;14.93;13.30;;;;;;;;;;4974772;28;20258;-52
2022/06/06 02:46:01;;;;;;;15.53;13.87;;;;;;;;;;4974345;28;20305;-52
2022/06/06 02:48:28;;;;;;;17.57;14.67;;;;;;;;;;4974403;28;20286;-53
2022/06/06 02:50:53;;;;;;;17.00;14.20;;;;;;;;;;4974319;28;20199;-53
2022/06/06 02:53:19;;;;;;;17.77;14.77;;;;;;;;;;4974174;28;20254;-53
2022/06/06 02:55:47;;;;;;;19.03;15.73;;;;;;;;;;4973006;28;20199;-53
2022/06/06 02:58:13;;;;;;;16.87;15.07;;;;;;;;;;4974162;28;20206;-53
2022/06/06 03:00:42;;;;;;;17.57;15.40;;;;;;;;;;4974129;28;20205;-53
2022/06/06 03:03:08;;;;;;;17.83;15.83;;;;;;;;;;4974186;28;20688;-53
2022/06/06 03:05:48;;;;;;;18.97;15.90;;;;;;;;;;4974100;28;20226;-52
2022/06/06 03:08:22;;;;;;;17.20;15.50;;;;;;;;;;4974107;28;20209;-53
2022/06/06 03:11:01;;;;;;;17.47;15.67;;;;;;;;;;4974372;28;20206;-53
2022/06/06 03:13:36;;;;;;;17.50;15.80;;;;;;;;;;4973876;28;20396;-52
2022/06/06 03:21:45;;;;;;;19.60;17.53;;;;;;;;;;4973577;28;20221;-52
2022/06/06 03:24:20;;;;;;;19.50;17.47;;;;;;;;;;4973595;28;20227;-53
2022/06/06 03:26:55;;;;;;;22.20;17.70;;;;;;;;;;4973669;28;20234;-53
2022/06/06 03:29:26;;;;;;;20.20;17.73;;;;;;;;;;4973439;28;20242;-51
2022/06/06 03:31:58;;;;;;;22.77;19.53;;;;;;;;;;4973289;28;20294;-52
2022/06/06 03:34:27;;;;;;;24.63;20.67;;;;;;;;;;4973506;28;20336;-53
2022/06/06 03:36:56;;;;;;;26.63;21.23;;;;;;;;;;4973397;28;20198;-52
2022/06/06 03:39:32;;;;;;;27.20;21.60;;;;;;;;;;4973469;28;20662;-52
2022/06/06 03:42:06;;;;;;;26.43;21.60;;;;;;;;;;4973463;28;20203;-52
2022/06/06 03:44:39;;;;;;;25.37;21.80;;;;;;;;;;4973314;28;20232;-51
2022/06/06 03:47:08;;;;;;;27.83;21.97;;;;;;;;;;4973130;28;20195;-52
2022/06/06 03:49:40;;;;;;;25.40;21.57;;;;;;;;;;4973306;28;20205;-51
2022/06/06 03:52:10;;;;;;;23.93;20.33;;;;;;;;;;4973245;28;20199;-51
2022/06/06 03:54:41;;;;;;;24.13;20.77;;;;;;;;;;4973204;28;20253;-52
2022/06/06 03:57:12;;;;;;;24.13;20.80;;;;;;;;;;4973074;28;20213;-52
2022/06/06 03:59:39;;;;;;;26.77;22.17;;;;;;;;;;4973121;28;20301;-51
2022/06/06 04:02:05;;;;;;;28.13;22.07;;;;;;;;;;4973090;28;20222;-51
2022/06/06 04:04:32;;;;;;;25.43;21.67;;;;;;;;;;4972933;28;20231;-53
2022/06/06 04:06:59;;;;;;;27.93;22.33;;;;;;;;;;4972783;28;20516;-53
2022/06/06 04:09:25;;;;;;;25.30;20.43;;;;;;;;;;4973085;28;20206;-53
2022/06/06 04:11:59;;;;;;;27.87;21.63;;;;;;;;;;4972725;28;20207;-52
2022/06/06 04:14:35;;;;;;;30.43;23.20;;;;;;;;;;4973071;28;20205;-52
2022/06/06 04:17:05;;;;;;;27.27;21.60;;;;;;;;;;4972715;28;20297;-53
2022/06/06 04:19:36;;;;;;;24.07;20.90;;;;;;;;;;4972758;28;20205;-52
2022/06/06 04:22:05;;;;;;;26.47;21.63;;;;;;;;;;4972326;28;20197;-52
2022/06/06 04:24:39;;;;;;;28.63;21.77;;;;;;;;;;4972568;28;20234;-52
2022/06/06 04:27:07;;;;;;;28.60;21.17;;;;;;;;;;4972754;28;20253;-52
2022/06/06 04:29:39;;;;;;;27.43;20.77;;;;;;;;;;4972597;28;20724;-50
2022/06/06 04:32:09;;;;;;;29.83;19.80;;;;;;;;;;4972901;28;20339;-53
2022/06/06 04:34:39;;;;;;;27.60;20.83;;;;;;;;;;4972649;28;20555;-50
2022/06/06 04:37:08;;;;;;;26.23;19.53;;;;;;;;;;4972439;28;20273;-53
2022/06/06 04:39:39;;;;;;;24.30;18.60;;;;;;;;;;4972556;28;20619;-52
2022/06/06 04:42:08;;;;;;;26.00;18.67;;;;;;;;;;4972532;28;20277;-52
2022/06/06 04:44:41;;;;;;;27.50;19.70;;;;;;;;;;4972185;28;20258;-52
2022/06/06 04:47:11;;;;;;;25.93;19.37;;;;;;;;;;4972446;28;20285;-53
2022/06/06 04:49:37;;;;;;;27.50;19.00;;;;;;;;;;4972559;28;20297;-51
2022/06/06 04:52:04;;;;;;;27.37;20.33;;;;;;;;;;4971943;28;20278;-51
2022/06/06 04:54:31;;;;;;;28.00;21.43;;;;;;;;;;4972602;28;20257;-52
2022/06/06 04:56:59;;;;;;;27.10;20.73;;;;;;;;;;4972331;28;20201;-51
2022/06/06 04:59:25;;;;;;;28.47;19.80;;;;;;;;;;4972308;28;20435;-52
2022/06/06 05:01:54;;;;;;;26.70;19.10;;;;;;;;;;4972353;28;20286;-51
2022/06/06 05:04:20;;;;;;;28.17;20.80;;;;;;;;;;4972345;28;20231;-51
2022/06/06 05:07:09;;;;;;;24.37;18.53;;;;;;;;;;4972129;28;20572;-51
2022/06/06 05:09:46;;;;;;;27.00;17.20;;;;;;;;;;4972310;28;20547;-51
2022/06/06 05:12:21;;;;;;;22.53;16.40;;;;;;;;;;4972126;28;20684;-51
2022/06/06 05:14:56;;;;;;;18.27;14.07;;;;;;;;;;4972187;28;20191;-51
2022/06/06 05:17:28;;;;;;;18.17;13.57;;;;;;;;;;4972088;28;20210;-52
2022/06/06 05:20:00;;;;;;;21.60;13.57;;;;;;;;;;4972075;28;20211;-52
2022/06/06 05:22:38;;;;;;;16.63;12.07;;;;;;;;;;4972098;28;20195;-52
2022/06/06 05:25:13;;;;;;;16.40;12.20;;;;;;;;;;4971873;28;20227;-51
2022/06/06 05:27:46;;;;;;;15.27;11.33;;;;;;;;;;4972281;28;20238;-51
2022/06/06 05:30:17;;;;;;;15.43;11.77;;;;;;;;;;4972503;28;20254;-52
2022/06/06 05:32:50;;;;;;;14.43;10.90;;;;;;;;;;4972257;28;20223;-52
2022/06/06 05:35:21;;;;;;;13.37;10.37;;;;;;;;;;4972032;28;20681;-52
2022/06/06 05:37:51;;;;;;;12.53;9.70;;;;;;;;;;4972119;28;20699;-51
2022/06/06 05:40:21;;;;;;;14.40;9.60;;;;;;;;;;4972003;28;20573;-50
2022/06/06 05:43:01;;;;;;;13.53;10.90;;;;;;;;;;4971928;28;20204;-50
2022/06/06 05:45:33;;;;;;;11.97;9.97;;;;;;;;;;4971925;28;20241;-52
2022/06/06 05:48:07;;;;;;;11.13;9.67;;;;;;;;;;4971906;28;20565;-51
2022/06/06 05:50:39;;;;;;;12.27;10.03;;;;;;;;;;4972016;28;20655;-49
2022/06/06 05:53:20;;;;;;;13.67;10.27;;;;;;;;;;4971907;28;20258;-52
2022/06/06 05:55:53;;;;;;;14.53;10.87;;;;;;;;;;4973478;28;20370;-50
2022/06/06 05:58:25;;;;;;;12.93;9.47;;;;;;;;;;4975144;28;20203;-51
2022/06/06 06:01:00;;;;;;;11.97;10.33;;;;;;;;;;4975171;28;20214;-52
2022/06/06 06:03:44;;;;;;;12.77;9.63;;;;;;;;;;4975315;28;20484;-52
2022/06/06 06:06:18;;;;;;;11.87;9.63;;;;;;;;;;4975163;28;20257;-50
2022/06/06 06:08:55;;;;;;;12.60;9.37;;;;;;;;;;4975200;28;20254;-52
2022/06/06 06:11:31;;;;;;;10.47;8.97;;;;;;;;;;4974878;28;20210;-51
2022/06/06 06:14:03;;;;;;;11.30;8.50;;;;;;;;;;4974954;28;20202;-49
2022/06/06 06:16:32;;;;;;;11.03;8.57;;;;;;;;;;4974993;28;20199;-50
2022/06/06 06:19:05;;;;;;;11.63;8.97;;;;;;;;;;4974758;28;20202;-51
2022/06/06 06:21:31;;;;;;;10.77;8.57;;;;;;;;;;4974924;28;20203;-51
2022/06/06 06:23:59;;;;;;;10.47;8.03;;;;;;;;;;4974671;28;20222;-50
2022/06/06 06:26:27;;;;;;;9.93;8.10;;;;;;;;;;4974665;28;20555;-52
2022/06/06 06:28:54;;;;;;;10.47;7.83;;;;;;;;;;4974607;28;20235;-52
2022/06/06 06:31:32;;;;;;;10.00;8.10;;;;;;;;;;4974999;28;20207;-51
2022/06/06 06:34:13;;;;;;;9.07;7.47;;;;;;;;;;4974658;28;20561;-52
2022/06/06 06:36:43;;;;;;;9.07;7.70;;;;;;;;;;4974477;28;20298;-51
2022/06/06 06:39:13;;;;;;;11.73;7.97;;;;;;;;;;4974261;28;20219;-51
2022/06/06 06:41:47;;;;;;;9.07;6.93;;;;;;;;;;4974329;28;20577;-52
2022/06/06 06:44:18;;;;;;;13.00;8.20;;;;;;;;;;4974216;28;20250;-52
2022/06/06 06:46:47;;;;;;;8.90;6.63;;;;;;;;;;4974508;28;20271;-52
2022/06/06 06:49:19;;;;;;;6.80;6.10;;;;;;;;;;4974558;28;20682;-52
2022/06/06 06:51:53;;;;;;;8.57;6.03;;;;;;;;;;4974385;28;20204;-52
2022/06/06 06:54:25;;;;;;;8.07;6.10;;;;;;;;;;4974378;28;20204;-52
2022/06/06 06:56:59;;;;;;;7.00;5.70;;;;;;;;;;4974327;28;20208;-52
2022/06/06 06:59:30;;;;;;;7.07;5.47;;;;;;;;;;4974274;28;20199;-50
2022/06/06 07:10:34;;;;;;;7.10;5.80;;;;;;;;;;4973971;28;20683;-52
2022/06/06 07:13:08;;;;;;;8.60;6.60;;;;;;;;;;4973860;28;20692;-51
2022/06/06 07:15:38;;;;;;;10.70;7.93;;;;;;;;;;4974031;28;20202;-50
2022/06/06 07:18:05;;;;;;;13.60;8.10;;;;;;;;;;4973654;28;20213;-52
2022/06/06 07:20:35;;;;;;;9.93;8.47;;;;;;;;;;4973729;28;20291;-52
2022/06/06 07:23:03;;;;;;;11.07;9.10;;;;;;;;;;4973664;28;20228;-52
2022/06/06 07:25:32;;;;;;;12.33;9.57;;;;;;;;;;4973593;28;20284;-51
2022/06/06 07:27:58;;;;;;;12.30;9.33;;;;;;;;;;4973317;28;20288;-52
2022/06/06 07:30:28;;;;;;;12.03;9.50;;;;;;;;;;4973564;28;20661;-52
2022/06/06 07:33:00;;;;;;;12.70;10.60;;;;;;;;;;4973556;28;20580;-52
2022/06/06 07:35:31;;;;;;;13.00;10.87;;;;;;;;;;4973585;28;20566;-50
2022/06/06 07:38:05;;;;;;;12.53;10.70;;;;;;;;;;4973282;28;20203;-52
2022/06/06 07:40:38;;;;;;;15.73;11.53;;;;;;;;;;4973432;28;20660;-51
2022/06/06 07:43:14;;;;;;;13.37;11.43;;;;;;;;;;4973385;28;20257;-51
2022/06/06 07:45:42;;;;;;;16.73;12.27;;;;;;;;;;4973179;28;20226;-51
2022/06/06 07:48:23;;;;;;;15.60;13.17;;;;;;;;;;4973232;28;20209;-52
2022/06/06 07:50:53;;;;;;;14.17;11.83;;;;;;;;;;4972956;28;20203;-51
2022/06/06 07:53:26;;;;;;;15.00;12.33;;;;;;;;;;4972944;28;20195;-51
2022/06/06 07:55:55;;;;;;;13.67;12.03;;;;;;;;;;4973019;28;20600;-52
2022/06/06 07:58:31;;;;;;;14.93;13.33;;;;;;;;;;4972948;28;20245;-51
2022/06/06 08:01:09;;;;;;;15.93;12.93;;;;;;;;;;4973066;28;20311;-52
2022/06/06 08:03:41;;;;;;;15.20;13.53;;;;;;;;;;4973008;28;20259;-52
2022/06/06 08:06:12;;;;;;;14.73;12.67;;;;;;;;;;4972138;28;20583;-51
2022/06/06 08:08:56;;;;;;;13.93;12.53;;;;;;;;;;4973006;28;20470;-50
2022/06/06 08:11:29;;;;;;;13.63;12.33;;;;;;;;;;4959974;28;20265;-52
2022/06/06 08:14:01;;;;;;;14.20;12.70;;;;;;;;;;4972903;28;20702;-52
2022/06/06 08:16:30;;;;;;;15.37;13.87;;;;;;;;;;4972982;28;20205;-49
2022/06/06 08:19:23;;;;;;;14.17;12.70;;;;;;;;;;4971707;28;20672;-52
2022/06/06 08:21:50;;;;;;;14.93;12.47;;;;;;;;;;4927034;28;20233;-50
2022/06/06 08:24:17;;;;;;;13.57;12.17;;;;;;;;;;4972362;28;20226;-51
2022/06/06 08:26:46;;;;;;;12.70;11.50;;;;;;;;;;4972834;28;20218;-51
2022/06/06 08:29:12;;;;;;;12.53;11.23;;;;;;;;;;4972509;28;20280;-50
2022/06/06 08:31:38;;;;;;;11.80;9.57;;;;;;;;;;4972312;28;20210;-51
2022/06/06 08:34:04;;;;;;;9.77;8.77;;;;;;;;;;4972480;28;20221;-51
2022/06/06 08:36:34;;;;;;;9.53;7.70;;;;;;;;;;4972271;28;20194;-51
2022/06/06 08:39:03;;;;;;;9.23;8.33;;;;;;;;;;4972521;28;20668;-51
2022/06/06 08:41:45;;;;;;;8.60;7.70;;;;;;;;;;4972381;28;20213;-51
2022/06/06 08:44:22;;;;;;;7.30;6.60;;;;;;;;;;4972300;28;20561;-51
2022/06/06 08:46:59;;;;;;;7.00;6.00;;;;;;;;;;4972554;28;20206;-50
2022/06/06 08:52:29;;;;;;;6.80;5.93;;;;;;;;;;4972397;28;20201;-51
2022/06/06 08:55:10;;;;;;;7.40;5.43;;;;;;;;;;4972317;28;20221;-54
2022/06/06 08:57:45;;;;;;;5.90;5.30;;;;;;;;;;4972310;28;20202;-55
2022/06/06 09:00:20;;;;;;;6.20;5.60;;;;;;;;;;4972333;28;20226;-57
2022/06/06 09:03:13;;;;;;;5.97;5.30;;;;;;;;;;4971954;28;20355;-54
2022/06/06 09:05:58;;;;;;;5.90;5.40;;;;;;;;;;4926363;28;20558;-55
2022/06/06 09:08:58;;;;;;;6.07;5.40;;;;;;;;;;4971619;28;20261;-53
2022/06/06 09:11:41;;;;;;;7.43;5.90;;;;;;;;;;4972286;28;20195;-53
2022/06/06 09:14:21;;;;;;;7.30;6.57;;;;;;;;;;4972068;28;20646;-53
2022/06/06 09:16:59;;;;;;;5.57;5.07;;;;;;;;;;4956315;28;20573;-54
2022/06/06 09:19:35;;;;;;;5.17;4.77;;;;;;;;;;4971748;28;20644;-54
2022/06/06 09:22:13;;;;;;;5.60;5.10;;;;;;;;;;4971640;28;20198;-53
2022/06/06 09:25:03;;;;;;;6.07;4.70;;;;;;;;;;4971968;28;20329;-53
2022/06/06 09:27:44;;;;;;;5.00;4.53;;;;;;;;;;4952426;28;20207;-53
2022/06/06 09:30:18;;;;;;;4.43;4.03;;;;;;;;;;4974349;28;20238;-54
2022/06/06 09:33:00;;;;;;;5.30;4.57;;;;;;;;;;4975879;28;20237;-55
2022/06/06 09:35:44;;;;;;;4.20;3.80;;;;;;;;;;4975255;28;20199;-52
2022/06/06 09:38:15;;;;;;;5.70;4.10;;;;;;;;;;4975564;28;20238;-54
2022/06/06 09:40:51;;;;;;;4.80;3.80;;;;;;;;;;4975705;28;20199;-54
2022/06/06 09:43:27;;;;;;;5.73;3.77;;;;;;;;;;4975028;28;20202;-54
2022/06/06 09:46:07;;;;;;;4.40;4.00;;;;;;;;;;4975414;28;20235;-55
2022/06/06 09:48:48;;;;;;;4.33;3.77;;;;;;;;;;4975394;28;20191;-55
2022/06/06 09:51:32;;;;;;;4.57;3.63;;;;;;;;;;4958657;28;20212;-54
2022/06/06 10:00:14;;;;;;;5.10;3.50;;;;;;;;;;4975495;28;20193;-55
2022/06/06 10:02:58;;;;;;;4.40;3.83;;;;;;;;;;4975307;28;20212;-54
2022/06/06 10:05:48;;;;;;;3.80;3.50;;;;;;;;;;4975211;28;20261;-54
2022/06/06 10:08:29;;;;;;;3.80;3.50;;;;;;;;;;4975021;28;20205;-54
2022/06/06 10:11:13;;;;;;;4.30;3.03;;;;;;;;;;4975198;28;20666;-54
2022/06/06 10:13:45;;;;;;;4.53;3.40;;;;;;;;;;4975192;28;20555;-54
2022/06/06 10:16:16;;;;;;;3.20;2.90;;;;;;;;;;4975029;28;20211;-53
2022/06/06 10:18:55;;;;;;;3.57;2.60;;;;;;;;;;4975091;28;20210;-53
2022/06/06 10:21:30;;;;;;;4.27;2.37;;;;;;;;;;4974801;28;20217;-54
2022/06/06 10:24:05;;;;;;;4.03;3.30;;;;;;;;;;4974881;28;20730;-53
2022/06/06 10:26:39;;;;;;;3.03;2.73;;;;;;;;;;4974870;28;20234;-54
2022/06/06 10:29:19;;;;;;;4.47;3.07;;;;;;;;;;4974907;28;20331;-54
2022/06/06 10:32:01;;;;;;;2.63;2.30;;;;;;;;;;4974563;28;20650;-54
2022/06/06 10:34:35;;;;;;;2.73;2.50;;;;;;;;;;4974813;28;20205;-55
2022/06/06 10:37:10;;;;;;;2.83;2.37;;;;;;;;;;4974871;28;20212;-67
2022/06/06 10:39:46;;;;;;;2.63;2.33;;;;;;;;;;4974879;28;20648;-66
2022/06/06 10:42:22;;;;;;;2.50;2.30;;;;;;;;;;4973826;28;20246;-71
2022/06/06 10:45:02;;;;;;;2.60;2.40;;;;;;;;;;4974592;28;20319;-68
2022/06/06 10:47:37;;;;;;;2.77;2.57;;;;;;;;;;4974557;28;20619;-59
2022/06/06 10:50:08;;;;;;;2.33;2.13;;;;;;;;;;4974509;28;20298;-55
2022/06/06 10:52:48;;;;;;;2.20;2.00;;;;;;;;;;4974452;28;20215;-55
2022/06/06 10:55:38;;;;;;;2.30;1.93;;;;;;;;;;4972556;28;20201;-55
2022/06/06 10:58:21;;;;;;;1.93;1.83;;;;;;;;;;4974387;28;20599;-56
2022/06/06 11:01:02;;;;;;;4.50;1.97;;;;;;;;;;4974585;28;20204;-55
2022/06/06 11:03:44;;;;;;;1.93;1.70;;;;;;;;;;4974171;28;20208;-55
2022/06/06 11:06:28;;;;;;;2.17;1.97;;;;;;;;;;4974230;28;20271;-54
2022/06/06 11:09:13;;;;;;;2.20;2.00;;;;;;;;;;4974235;28;20591;-55
2022/06/06 11:11:58;;;;;;;2.50;1.90;;;;;;;;;;4974223;28;20647;-55
2022/06/06 11:14:29;;;;;;;2.00;1.80;;;;;;;;;;4974092;28;20555;-55
2022/06/06 11:17:19;;;;;;;1.80;1.70;;;;;;;;;;4974085;28;20207;-55
2022/06/06 11:20:03;;;;;;;4.70;1.97;;;;;;;;;;4974184;28;20207;-55
2022/06/06 11:22:33;;;;;;;1.93;1.80;;;;;;;;;;4925201;28;20210;-55
2022/06/06 11:25:06;;;;;;;3.07;1.80;;;;;;;;;;4973710;28;20219;-55
2022/06/06 11:27:48;;;;;;;3.20;1.90;;;;;;;;;;4973747;28;20201;-56
2022/06/06 11:30:26;;;;;;;5.50;1.90;;;;;;;;;;4973861;28;20219;-56
2022/06/06 11:33:19;;;;;;;1.60;1.40;;;;;;;;;;4973960;28;20215;-56
2022/06/06 11:35:56;;;;;;;2.70;1.73;;;;;;;;;;4973725;28;20543;-56
2022/06/06 11:38:45;;;;;;;2.50;1.43;;;;;;;;;;4973540;28;20211;-56
2022/06/06 11:41:28;;;;;;;1.77;1.50;;;;;;;;;;4973598;28;20287;-56
2022/06/06 11:44:12;;;;;;;1.87;1.53;;;;;;;;;;4973901;28;20196;-56
2022/06/06 11:46:51;;;;;;;2.40;1.37;;;;;;;;;;4972767;28;20225;-56
2022/06/06 11:49:27;;;;;;;1.20;1.10;;;;;;;;;;4973430;28;20351;-56
2022/06/06 11:52:09;;;;;;;3.43;1.43;;;;;;;;;;4973282;28;20228;-55
2022/06/06 11:54:47;;;;;;;2.30;1.30;;;;;;;;;;4973207;28;20243;-55
2022/06/06 11:57:23;;;;;;;1.30;1.20;;;;;;;;;;4973267;28;20237;-55
2022/06/06 12:00:04;;;;;;;1.60;1.50;;;;;;;;;;4973407;28;20200;-56
2022/06/06 12:02:40;;;;;;;2.77;1.37;;;;;;;;;;4973261;28;20201;-55
2022/06/06 12:05:16;;;;;;;1.67;1.40;;;;;;;;;;4973055;28;20225;-56
2022/06/06 12:08:00;;;;;;;2.30;1.77;;;;;;;;;;4973414;28;20206;-55
2022/06/06 12:10:27;;;;;;;2.57;1.90;;;;;;;;;;4973100;28;20201;-56
2022/06/06 12:13:08;;;;;;;1.40;1.30;;;;;;;;;;4973159;28;20205;-56
2022/06/06 12:15:41;;;;;;;3.23;1.80;;;;;;;;;;4973107;28;20193;-55
2022/06/06 12:18:20;;;;;;;2.97;1.77;;;;;;;;;;4973132;28;20198;-55
2022/06/06 12:20:56;;;;;;;2.47;1.67;;;;;;;;;;4973162;28;20228;-56
2022/06/06 12:23:28;;;;;;;1.60;1.50;;;;;;;;;;4972816;28;20612;-55
2022/06/06 12:25:57;;;;;;;3.50;2.10;;;;;;;;;;4972762;28;20238;-55
2022/06/06 12:28:49;;;;;;;2.00;1.80;;;;;;;;;;4973116;28;20808;-55
2022/06/06 12:31:25;;;;;;;1.73;1.63;;;;;;;;;;4972882;28;20721;-56
2022/06/06 12:33:57;;;;;;;2.00;1.70;;;;;;;;;;4972686;28;20269;-55
2022/06/06 12:36:25;;;;;;;1.90;1.70;;;;;;;;;;4972811;28;20237;-56
2022/06/06 12:38:56;;;;;;;2.23;1.83;;;;;;;;;;4972797;28;20206;-55
2022/06/06 12:41:33;;;;;;;5.23;1.90;;;;;;;;;;4972570;28;20197;-55
2022/06/06 12:44:01;;;;;;;2.37;2.10;;;;;;;;;;4972817;28;20199;-54
2022/06/06 12:46:42;;;;;;;4.30;1.50;;;;;;;;;;4972487;28;20235;-55
2022/06/06 12:49:25;;;;;;;2.83;1.50;;;;;;;;;;4972513;28;20226;-54
2022/06/06 12:51:58;;;;;;;2.13;1.70;;;;;;;;;;4972451;28;20215;-55
2022/06/06 12:55:27;;;;;;;2.30;1.60;;;;;;;;;;4972600;28;20203;-55
2022/06/06 12:57:25;;;;;;;1.50;1.40;;;;;;;;;;4972147;28;20293;-55
2022/06/06 12:59:58;;;;;;;1.63;1.43;;;;;;;;;;4972479;28;20209;-55
2022/06/06 13:02:41;;;;;;;1.87;1.40;;;;;;;;;;4970448;28;20274;-55
2022/06/06 13:05:18;;;;;;;1.70;1.60;;;;;;;;;;4974367;28;20245;-55
2022/06/06 13:07:54;;;;;;;2.97;1.30;;;;;;;;;;4976025;28;20198;-55
2022/06/06 13:10:23;;;;;;;2.53;1.40;;;;;;;;;;4975961;28;20210;-55
2022/06/06 13:12:56;;;;;;;2.27;1.40;;;;;;;;;;4976005;28;20199;-55
2022/06/06 13:15:29;;;;;;;1.50;1.30;;;;;;;;;;4975893;28;20264;-55
2022/06/06 13:18:02;;;;;;;1.43;1.00;;;;;;;;;;4975983;28;20317;-55
2022/06/06 13:20:38;;;;;;;1.83;1.60;;;;;;;;;;4975750;28;20303;-55
2022/06/06 13:23:18;;;;;;;2.70;1.47;;;;;;;;;;4975897;28;20212;-55
2022/06/06 13:25:50;;;;;;;1.80;1.30;;;;;;;;;;4975395;28;20236;-55
2022/06/06 13:28:19;;;;;;;1.53;1.13;;;;;;;;;;4975479;28;20241;-55
2022/06/06 13:30:54;;;;;;;1.27;1.10;;;;;;;;;;4975521;28;20208;-55
2022/06/06 13:33:27;;;;;;;1.47;1.20;;;;;;;;;;4975317;28;20203;-55
2022/06/06 13:36:01;;;;;;;1.63;0.93;;;;;;;;;;4975216;28;20562;-55
2022/06/06 13:38:35;;;;;;;1.83;1.10;;;;;;;;;;4975192;28;20208;-55
2022/06/06 13:41:07;;;;;;;1.10;1.00;;;;;;;;;;4975290;28;20246;-55
2022/06/06 13:43:56;;;;;;;1.90;1.20;;;;;;;;;;4975153;28;20228;-54
2022/06/06 13:46:35;;;;;;;1.00;1.00;;;;;;;;;;4975136;28;20231;-54
2022/06/06 13:49:09;;;;;;;1.03;1.03;;;;;;;;;;4975120;28;20208;-54
2022/06/06 13:51:41;;;;;;;2.83;1.20;;;;;;;;;;4974893;28;20261;-56
2022/06/06 13:54:08;;;;;;;2.37;1.37;;;;;;;;;;4975038;28;20195;-55
2022/06/06 13:56:43;;;;;;;2.10;1.30;;;;;;;;;;4974986;28;20195;-56
2022/06/06 13:59:14;;;;;;;1.60;1.30;;;;;;;;;;4974926;28;20242;-56
2022/06/06 14:01:46;;;;;;;1.83;1.40;;;;;;;;;;4974820;28;20675;-55
2022/06/06 14:04:25;;;;;;;3.93;1.50;;;;;;;;;;4974907;28;20728;-55
2022/06/06 14:07:02;;;;;;;4.43;1.57;;;;;;;;;;4974924;28;20198;-55
2022/06/06 14:09:37;;;;;;;1.50;1.40;;;;;;;;;;4974851;28;20290;-54
2022/06/06 14:12:11;;;;;;;1.97;1.70;;;;;;;;;;4975254;28;20684;-55
2022/06/06 14:14:39;;;;;;;2.03;1.40;;;;;;;;;;4975203;28;20241;-55
2022/06/06 14:17:06;;;;;;;2.73;1.40;;;;;;;;;;4973865;28;20207;-55
2022/06/06 14:19:35;;;;;;;1.50;1.40;;;;;;;;;;4974695;28;20198;-56
2022/06/06 14:22:04;;;;;;;1.47;1.33;;;;;;;;;;4975035;28;20298;-56
2022/06/06 14:24:32;;;;;;;2.07;1.40;;;;;;;;;;4974696;28;20195;-56
2022/06/06 14:26:59;;;;;;;2.33;1.50;;;;;;;;;;4974867;28;20234;-56
2022/06/06 14:29:27;;;;;;;1.53;1.43;;;;;;;;;;4974739;28;20261;-57
2022/06/06 14:31:54;;;;;;;1.77;1.30;;;;;;;;;;4975192;28;20211;-56
2022/06/06 14:34:26;;;;;;;2.30;1.40;;;;;;;;;;4974624;28;20637;-56
2022/06/06 14:37:11;;;;;;;1.63;1.10;;;;;;;;;;4974793;28;20297;-57
2022/06/06 14:39:37;;;;;;;1.20;1.10;;;;;;;;;;4974819;28;20234;-56
2022/06/06 14:42:05;;;;;;;1.57;1.20;;;;;;;;;;4974894;28;20206;-56
2022/06/06 14:44:34;;;;;;;1.97;1.00;;;;;;;;;;4974519;28;20230;-55
2022/06/06 14:47:05;;;;;;;1.10;1.00;;;;;;;;;;4974804;28;20209;-55
2022/06/06 14:49:33;;;;;;;1.00;1.00;;;;;;;;;;4974584;28;20615;-56
2022/06/06 14:52:07;;;;;;;2.17;1.37;;;;;;;;;;4974751;28;20202;-56
2022/06/06 14:54:36;;;;;;;2.63;1.20;;;;;;;;;;4974562;28;20253;-56
2022/06/06 14:57:04;;;;;;;1.97;0.70;;;;;;;;;;4972717;28;20262;-54
2022/06/06 14:59:34;;;;;;;1.33;0.80;;;;;;;;;;4974273;28;20207;-55
2022/06/06 15:02:10;;;;;;;1.53;1.03;;;;;;;;;;4974342;28;20226;-54
2022/06/06 15:04:36;;;;;;;2.20;1.00;;;;;;;;;;4974103;28;20206;-55
2022/06/06 15:07:01;;;;;;;1.00;0.80;;;;;;;;;;4974493;28;20210;-54
2022/06/06 15:09:31;;;;;;;1.00;0.80;;;;;;;;;;4974092;28;20258;-55
2022/06/06 15:11:59;;;;;;;1.03;0.80;;;;;;;;;;4974237;28;20417;-55
2022/06/06 15:14:28;;;;;;;2.63;1.20;;;;;;;;;;4974278;28;20206;-54
2022/06/06 15:16:54;;;;;;;1.27;0.90;;;;;;;;;;4974093;28;20534;-54
2022/06/06 15:19:22;;;;;;;1.50;1.00;;;;;;;;;;4973906;28;20536;-54
2022/06/06 15:21:49;;;;;;;0.70;0.70;;;;;;;;;;4974059;28;20202;-54
2022/06/06 15:24:17;;;;;;;1.90;1.10;;;;;;;;;;4974159;28;20195;-55
2022/06/06 15:26:45;;;;;;;1.37;1.10;;;;;;;;;;4973382;28;21042;-55
2022/06/06 15:29:16;;;;;;;1.70;1.20;;;;;;;;;;4973872;28;20239;-55
2022/06/06 15:31:49;;;;;;;1.33;1.20;;;;;;;;;;4973868;28;20211;-55
2022/06/06 15:34:25;;;;;;;1.67;1.30;;;;;;;;;;4973313;28;20203;-56
2022/06/06 15:36:57;;;;;;;1.37;0.90;;;;;;;;;;4973570;28;20199;-56